P Hill, Oregon
Current Conditions -  °F | °C
As of 4:54 PM on Saturday 22 Nov 2014 (Local Time) from KEUG Reporting Station
Broken Clouds Broken Clouds  
Wind Chill: 45°   Ceiling: 6000
Heat Index: 48°   Visibility: 10mi
Dew Point: 43°   Wind: 7mph
Humidity: 83%   Direction: 220°SW
Pressure: 30.15"   Gusts: NA
Location:  43.9516°N, 122.922°W
Report Text: KEUG 230054Z 22006KT 10SM FEW032 BKN060 BKN100 09/06 A3015 RMK AO2 RAE30 SLP209 P0000 T00890061
Loading
Personal Weather Stations






























Interactive Weather Map New forecast layout! Learn more

10-Day Weather Forecast

Advertisements
Track Severe Weather on mobile